createdAt,value
2022-12-25T00:01:33.608Z,1.15
2022-12-25T00:04:01.259Z,1.40
2022-12-25T00:06:28.997Z,1.20
2022-12-25T00:08:56.459Z,1.20
2022-12-25T00:11:24.083Z,1.10
2022-12-25T00:13:51.683Z,1.02
2022-12-25T00:16:24.876Z,1.00
2022-12-25T00:18:53.622Z,1.40
2022-12-25T00:21:22.357Z,1.02
2022-12-25T00:23:54.970Z,1.30
2022-12-25T00:26:23.119Z,0.90
2022-12-25T00:28:55.629Z,0.90
2022-12-25T00:31:23.892Z,0.80
2022-12-25T00:33:52.547Z,0.60
2022-12-25T00:36:22.302Z,0.88
2022-12-25T00:38:49.883Z,1.10
2022-12-25T00:41:40.202Z,1.20
2022-12-25T00:44:10.066Z,0.90
2022-12-25T00:46:37.629Z,1.10
2022-12-25T00:49:05.592Z,1.08
2022-12-25T00:51:33.806Z,1.02
2022-12-25T00:54:01.432Z,0.90
2022-12-25T00:56:29.371Z,0.90
2022-12-25T00:58:59.902Z,0.93
2022-12-25T01:01:27.625Z,1.00
2022-12-25T01:03:55.657Z,1.10
2022-12-25T01:06:23.236Z,1.00
2022-12-25T01:09:09.263Z,1.10
2022-12-25T01:11:36.924Z,1.20
2022-12-25T01:14:05.021Z,1.02
2022-12-25T01:16:32.647Z,0.90
2022-12-25T01:19:00.211Z,0.90
2022-12-25T01:21:28.078Z,1.27
2022-12-25T01:23:55.653Z,1.00
2022-12-25T01:26:25.187Z,1.00
2022-12-25T01:28:52.754Z,1.08
2022-12-25T01:31:22.710Z,0.85
2022-12-25T01:33:50.220Z,1.00
2022-12-25T01:36:20.576Z,1.25
2022-12-25T01:38:49.146Z,1.35
2022-12-25T01:41:19.416Z,1.15
2022-12-25T01:43:58.895Z,1.52
2022-12-25T01:46:26.557Z,1.17
2022-12-25T01:48:56.202Z,1.10
2022-12-25T01:51:30.304Z,1.75
2022-12-25T01:54:03.273Z,1.00
2022-12-25T01:56:32.012Z,1.40
2022-12-25T01:59:01.221Z,1.40
2022-12-25T02:01:28.889Z,1.40
2022-12-25T02:04:09.298Z,1.25
2022-12-25T02:06:36.840Z,1.40
2022-12-25T02:09:04.604Z,1.50
2022-12-25T02:11:50.589Z,1.88
2022-12-25T02:14:18.182Z,1.65
2022-12-25T02:16:57.969Z,1.25
2022-12-25T02:19:42.114Z,1.40
2022-12-25T02:22:37.710Z,1.70
2022-12-25T02:25:17.338Z,1.42
2022-12-25T02:27:44.895Z,1.00
2022-12-25T02:30:13.385Z,1.25
2022-12-25T02:33:17.311Z,1.15
2022-12-25T02:35:51.163Z,1.30
2022-12-25T02:38:32.947Z,1.27
2022-12-25T02:41:10.138Z,1.63
2022-12-25T02:44:02.168Z,1.05
2022-12-25T02:46:50.119Z,1.15
2022-12-25T02:49:41.891Z,1.45
2022-12-25T02:52:37.548Z,1.50
2022-12-25T02:55:37.110Z,1.40
2022-12-25T02:58:33.591Z,1.35
2022-12-25T03:01:24.150Z,1.20
2022-12-25T03:04:13.475Z,1.52
2022-12-25T03:06:43.088Z,1.42
2022-12-25T03:09:54.778Z,1.55
2022-12-25T03:13:04.205Z,1.73
2022-12-25T03:15:52.424Z,1.45
2022-12-25T03:18:24.498Z,1.50
2022-12-25T03:21:11.628Z,1.50
2022-12-25T03:24:04.521Z,1.45
2022-12-25T03:26:51.969Z,1.58
2022-12-25T03:29:38.485Z,1.40
2022-12-25T03:32:35.262Z,1.40
2022-12-25T03:35:25.786Z,1.48
2022-12-25T03:38:33.468Z,1.67
2022-12-25T03:41:56.000Z,1.60
2022-12-25T03:45:01.542Z,2.00
2022-12-25T03:47:49.405Z,1.40
2022-12-25T03:50:37.799Z,1.70
2022-12-25T03:53:29.194Z,1.40
2022-12-25T03:56:16.598Z,2.00
2022-12-25T03:59:13.007Z,1.70
2022-12-25T04:02:01.528Z,1.40
2022-12-25T04:04:47.754Z,2.10
2022-12-25T04:07:33.663Z,1.92
2022-12-25T04:10:19.573Z,1.95
2022-12-25T04:13:05.785Z,2.08
2022-12-25T04:15:52.003Z,2.00
2022-12-25T04:18:38.417Z,1.35
2022-12-25T04:24:10.648Z,1.52
2022-12-25T04:26:56.718Z,2.05
2022-12-25T04:29:43.053Z,2.10
2022-12-25T04:32:29.276Z,1.92
2022-12-25T04:35:15.237Z,2.10
2022-12-25T04:37:42.715Z,1.85
2022-12-25T04:40:10.633Z,2.10
2022-12-25T04:42:38.236Z,2.00
2022-12-25T04:45:06.323Z,1.90
2022-12-25T04:47:34.118Z,2.03
2022-12-25T04:50:01.680Z,1.83
2022-12-25T04:52:29.287Z,1.98
2022-12-25T04:54:56.709Z,1.75
2022-12-25T04:57:24.245Z,1.90
2022-12-25T04:59:51.667Z,1.60
2022-12-25T05:02:19.383Z,1.80
2022-12-25T05:04:47.307Z,2.20
2022-12-25T05:07:14.833Z,1.88
2022-12-25T05:09:42.314Z,2.10
2022-12-25T05:12:11.036Z,2.05
2022-12-25T05:14:40.068Z,1.95
2022-12-25T05:17:08.210Z,2.00
2022-12-25T05:19:35.699Z,2.17
2022-12-25T05:22:03.226Z,1.67
2022-12-25T05:24:30.699Z,1.55
2022-12-25T05:26:58.350Z,1.98
2022-12-25T05:29:25.968Z,2.33
2022-12-25T05:31:53.475Z,1.60
2022-12-25T05:34:20.942Z,1.92
2022-12-25T05:36:48.440Z,2.17
2022-12-25T05:39:15.845Z,2.38
2022-12-25T05:41:43.316Z,2.10
2022-12-25T05:44:10.840Z,2.03
2022-12-25T05:46:38.384Z,1.85
2022-12-25T05:49:05.895Z,2.50
2022-12-25T05:51:33.872Z,1.80
2022-12-25T05:54:01.370Z,2.00
2022-12-25T05:56:28.876Z,3.10
2022-12-25T05:58:56.710Z,1.75
2022-12-25T06:01:27.077Z,2.00
2022-12-25T06:03:54.802Z,2.35
2022-12-25T06:06:22.359Z,2.00
2022-12-25T06:08:49.880Z,1.90
2022-12-25T06:11:17.331Z,1.88
2022-12-25T06:13:44.869Z,2.00
2022-12-25T06:16:13.033Z,1.42
2022-12-25T06:18:44.493Z,2.05
2022-12-25T06:21:14.521Z,2.10
2022-12-25T06:23:42.241Z,1.80
2022-12-25T06:26:12.977Z,1.60
2022-12-25T06:28:41.316Z,1.77
2022-12-25T06:31:14.653Z,1.33
2022-12-25T06:33:42.616Z,1.10
2022-12-25T06:36:15.988Z,1.85
2022-12-25T06:38:43.785Z,1.48
2022-12-25T06:41:14.136Z,1.50
2022-12-25T06:43:41.693Z,1.25
2022-12-25T06:46:11.851Z,1.88
2022-12-25T06:48:41.394Z,2.38
2022-12-25T06:51:08.928Z,1.77
2022-12-25T06:53:40.237Z,1.73
2022-12-25T06:56:17.024Z,1.60
2022-12-25T06:58:46.624Z,1.20
2022-12-25T07:01:34.272Z,1.30
2022-12-25T07:04:04.904Z,1.00
2022-12-25T07:06:32.860Z,1.30
2022-12-25T07:09:00.358Z,1.15
2022-12-25T07:11:27.997Z,1.23
2022-12-25T07:13:55.575Z,1.15
2022-12-25T07:16:23.282Z,1.40
2022-12-25T07:18:50.797Z,1.60
2022-12-25T07:21:20.447Z,1.65
2022-12-25T07:23:50.130Z,2.05
2022-12-25T07:26:17.974Z,1.88
2022-12-25T07:28:45.502Z,2.00
2022-12-25T07:31:16.046Z,2.17
2022-12-25T07:33:43.944Z,1.95
2022-12-25T07:36:13.047Z,1.77
2022-12-25T07:38:44.289Z,1.80
2022-12-25T07:41:13.163Z,2.20
2022-12-25T07:43:41.833Z,2.25
2022-12-25T07:46:10.068Z,2.17
2022-12-25T07:48:37.732Z,2.05
2022-12-25T07:51:07.932Z,2.55
2022-12-25T07:53:36.689Z,2.05
2022-12-25T07:56:11.630Z,2.10
2022-12-25T07:58:39.554Z,1.52
2022-12-25T08:01:28.843Z,2.35
2022-12-25T08:03:59.490Z,1.63
2022-12-25T08:06:30.673Z,1.83
2022-12-25T08:09:02.763Z,1.90
2022-12-25T08:11:30.265Z,1.90
2022-12-25T08:13:57.759Z,1.65
2022-12-25T08:16:25.417Z,2.35
2022-12-25T08:18:53.640Z,2.22
2022-12-25T08:21:21.457Z,2.90
2022-12-25T08:23:48.944Z,2.25
2022-12-25T08:26:20.175Z,2.58
2022-12-25T08:28:48.848Z,2.55
2022-12-25T08:31:37.179Z,2.38
2022-12-25T08:34:07.183Z,1.90
2022-12-25T08:36:34.881Z,2.20
2022-12-25T08:39:03.593Z,2.85
2022-12-25T08:41:32.354Z,2.30
2022-12-25T08:43:59.888Z,2.00
2022-12-25T08:46:27.511Z,2.78
2022-12-25T08:48:56.727Z,2.03
2022-12-25T08:51:25.600Z,2.65
2022-12-25T08:53:57.752Z,2.72
2022-12-25T08:56:25.265Z,2.45
2022-12-25T08:58:52.710Z,2.55
2022-12-25T09:01:20.309Z,2.90
2022-12-25T09:03:47.952Z,2.70
2022-12-25T09:06:16.490Z,2.58
2022-12-25T09:08:49.002Z,2.30
2022-12-25T09:11:19.717Z,2.22
2022-12-25T09:13:48.440Z,2.78
2022-12-25T09:16:19.276Z,2.65
2022-12-25T09:18:46.920Z,1.80
2022-12-25T09:21:16.324Z,2.53
2022-12-25T09:23:44.178Z,2.67
2022-12-25T09:26:14.377Z,3.15
2022-12-25T09:28:50.157Z,2.53
2022-12-25T09:31:20.347Z,2.50
2022-12-25T09:33:48.673Z,1.75
2022-12-25T09:36:16.235Z,2.25
2022-12-25T09:38:43.915Z,2.35
2022-12-25T09:41:20.171Z,2.80
2022-12-25T09:43:52.920Z,3.05
2022-12-25T09:46:33.035Z,2.60
2022-12-25T09:49:12.025Z,2.10
2022-12-25T09:51:42.353Z,2.03
2022-12-25T09:54:37.803Z,2.40
2022-12-25T09:57:06.234Z,2.25
2022-12-25T09:59:33.750Z,1.95
2022-12-25T10:02:35.110Z,2.45
2022-12-25T10:05:20.070Z,3.10
2022-12-25T10:07:56.571Z,2.53
2022-12-25T10:10:53.725Z,2.33
2022-12-25T10:14:00.714Z,2.38
2022-12-25T10:17:04.771Z,2.35
2022-12-25T10:19:45.577Z,2.00
2022-12-25T10:22:37.874Z,2.00
2022-12-25T10:25:09.332Z,2.30
2022-12-25T10:27:42.783Z,3.15
2022-12-25T10:30:22.264Z,2.10
2022-12-25T10:32:51.178Z,2.45
2022-12-25T10:35:21.952Z,2.38
2022-12-25T10:38:01.287Z,2.35
2022-12-25T10:41:00.601Z,2.33
2022-12-25T10:43:35.924Z,2.95
2022-12-25T10:46:12.156Z,3.22
2022-12-25T10:48:44.277Z,2.95
2022-12-25T10:51:12.290Z,2.30
2022-12-25T10:53:42.981Z,1.88
2022-12-25T10:56:17.032Z,2.25
2022-12-25T10:58:45.270Z,1.88
2022-12-25T11:01:13.335Z,2.47
2022-12-25T11:03:44.884Z,2.78
2022-12-25T11:06:42.751Z,2.67
2022-12-25T11:32:55.609Z,2.60
2022-12-25T11:35:30.492Z,2.15
2022-12-25T11:37:58.095Z,2.25
2022-12-25T11:40:42.455Z,2.08
2022-12-25T11:43:19.310Z,2.33
2022-12-25T11:45:54.283Z,1.92
2022-12-25T11:48:31.614Z,2.30
2022-12-25T11:51:02.364Z,2.53
2022-12-25T11:53:42.941Z,2.25
2022-12-25T11:56:31.727Z,1.55
2022-12-25T11:59:21.631Z,1.70
2022-12-25T12:02:21.891Z,1.80
2022-12-25T12:04:56.096Z,2.03
2022-12-25T12:07:29.826Z,1.98
2022-12-25T12:10:17.993Z,2.13
2022-12-25T12:12:49.314Z,1.83
2022-12-25T12:15:38.315Z,1.98
2022-12-25T12:18:09.933Z,2.40
2022-12-25T12:20:37.991Z,2.30
2022-12-25T12:23:15.532Z,2.97
2022-12-25T12:25:45.158Z,2.55
2022-12-25T12:28:24.998Z,2.80
2022-12-25T12:31:06.583Z,2.67
2022-12-25T12:33:39.255Z,3.40
2022-12-25T12:36:10.963Z,2.83
2022-12-25T12:38:41.050Z,3.15
2022-12-25T12:41:10.151Z,3.10
2022-12-25T12:43:57.457Z,2.30
2022-12-25T12:46:31.581Z,2.90
2022-12-25T12:49:21.604Z,2.90
2022-12-25T12:51:49.772Z,2.20
2022-12-25T12:54:25.733Z,2.63
2022-12-25T12:59:46.978Z,2.20
2022-12-25T13:02:46.442Z,2.60
2022-12-25T13:05:35.724Z,3.28
2022-12-25T13:08:10.792Z,2.83
2022-12-25T13:10:43.781Z,2.30
2022-12-25T13:13:17.747Z,2.20
2022-12-25T13:15:48.024Z,1.90
2022-12-25T13:18:16.146Z,1.83
2022-12-25T13:20:55.370Z,1.70
2022-12-25T13:23:33.256Z,2.05
2022-12-25T13:26:04.936Z,1.70
2022-12-25T13:28:34.949Z,1.55
2022-12-25T13:31:19.600Z,2.03
2022-12-25T13:34:02.556Z,1.75
2022-12-25T13:36:38.580Z,1.55
2022-12-25T13:42:05.431Z,1.20
2022-12-25T13:44:44.908Z,1.10
2022-12-25T13:47:22.440Z,1.02
2022-12-25T13:49:51.993Z,1.20
2022-12-25T13:52:28.291Z,1.33
2022-12-25T13:54:58.695Z,1.60
2022-12-25T13:57:36.258Z,1.85
2022-12-25T14:00:05.822Z,1.95
2022-12-25T14:02:37.493Z,1.80
2022-12-25T14:05:27.058Z,1.90
2022-12-25T14:07:56.755Z,2.10
2022-12-25T14:10:27.329Z,1.80
2022-12-25T14:12:58.504Z,2.28
2022-12-25T14:15:29.946Z,2.60
2022-12-25T14:17:58.379Z,2.00
2022-12-25T14:20:29.536Z,1.92
2022-12-25T14:22:59.554Z,1.48
2022-12-25T14:25:42.648Z,2.05
2022-12-25T14:28:19.131Z,2.33
2022-12-25T14:30:47.288Z,2.50
2022-12-25T14:33:24.339Z,2.17
2022-12-25T14:35:52.325Z,1.98
2022-12-25T14:38:29.533Z,1.80
2022-12-25T14:41:05.776Z,2.83
2022-12-25T14:43:34.691Z,1.60
2022-12-25T14:46:06.583Z,14.60
2022-12-25T14:48:34.361Z,6.63
2022-12-25T14:51:04.584Z,6.30
2022-12-25T14:53:41.168Z,4.13
2022-12-25T14:56:10.324Z,2.28
2022-12-25T14:58:43.473Z,2.17
2022-12-25T15:01:36.637Z,1.60
2022-12-25T15:04:10.106Z,1.45
2022-12-25T15:06:40.793Z,1.30
2022-12-25T15:09:16.667Z,1.50
2022-12-25T15:11:51.099Z,1.10
2022-12-25T15:14:18.907Z,1.30
2022-12-25T15:16:49.429Z,1.30
2022-12-25T15:19:25.403Z,1.63
2022-12-25T15:21:55.415Z,1.60
2022-12-25T15:24:23.168Z,2.83
2022-12-25T15:26:53.285Z,2.42
2022-12-25T15:29:44.493Z,2.30
2022-12-25T15:32:21.059Z,2.40
2022-12-25T15:34:50.036Z,2.22
2022-12-25T15:37:19.072Z,2.30
2022-12-25T15:39:46.867Z,1.90
2022-12-25T15:42:21.811Z,1.80
2022-12-25T15:44:49.396Z,2.00
2022-12-25T15:47:20.162Z,1.80
2022-12-25T15:49:47.963Z,2.20
2022-12-25T15:52:17.231Z,1.65
2022-12-25T15:54:44.928Z,1.45
2022-12-25T15:57:21.359Z,1.08
2022-12-25T15:59:49.134Z,1.10
2022-12-25T16:02:19.309Z,1.00
2022-12-25T16:04:47.519Z,0.90
2022-12-25T16:07:23.173Z,1.17
2022-12-25T16:09:51.485Z,1.10
2022-12-25T16:12:19.552Z,1.23
2022-12-25T16:14:47.081Z,1.20
2022-12-25T16:17:16.171Z,1.77
2022-12-25T16:19:44.920Z,1.33
2022-12-25T16:22:22.057Z,1.13
2022-12-25T16:24:50.190Z,1.00
2022-12-25T16:27:18.279Z,0.93
2022-12-25T16:29:45.957Z,0.90
2022-12-25T16:32:15.565Z,1.00
2022-12-25T16:34:43.782Z,1.20
2022-12-25T16:37:11.265Z,0.93
2022-12-25T16:39:38.814Z,1.25
2022-12-25T16:42:06.364Z,0.82
2022-12-25T16:44:36.853Z,1.38
2022-12-25T16:47:04.401Z,1.60
2022-12-25T16:49:32.474Z,1.50
2022-12-25T16:52:00.088Z,1.00
2022-12-25T16:54:27.677Z,1.05
2022-12-25T16:56:55.213Z,0.90
2022-12-25T16:59:22.825Z,0.90
2022-12-25T17:01:50.425Z,0.75
2022-12-25T17:04:17.955Z,0.80
2022-12-25T17:06:45.660Z,1.30
2022-12-25T17:09:13.118Z,1.27
2022-12-25T17:11:40.822Z,1.38
2022-12-25T17:14:09.610Z,1.25
2022-12-25T17:16:38.380Z,1.10
2022-12-25T17:19:09.765Z,1.25
2022-12-25T17:21:38.676Z,1.20
2022-12-25T17:24:06.860Z,0.93
2022-12-25T17:26:34.600Z,0.70
2022-12-25T17:29:02.778Z,0.90
2022-12-25T17:31:30.458Z,1.23
2022-12-25T17:33:59.793Z,0.80
2022-12-25T17:36:28.076Z,1.17
2022-12-25T17:38:55.545Z,0.82
2022-12-25T17:41:23.218Z,0.70
2022-12-25T17:43:50.815Z,0.95
2022-12-25T17:46:20.553Z,1.13
2022-12-25T17:48:50.078Z,1.50
2022-12-25T17:51:21.468Z,1.20
2022-12-25T17:53:52.798Z,1.20
2022-12-25T17:56:21.416Z,1.20
2022-12-25T17:58:54.531Z,1.00
2022-12-25T18:01:24.481Z,1.17
2022-12-25T18:03:52.772Z,1.30
2022-12-25T18:06:22.853Z,0.98
2022-12-25T18:08:50.623Z,1.30
2022-12-25T18:11:20.778Z,1.20
2022-12-25T18:13:51.893Z,1.33
2022-12-25T18:16:22.406Z,1.25
2022-12-25T18:18:52.645Z,1.10
2022-12-25T18:21:22.378Z,1.20
2022-12-25T18:23:50.539Z,1.27
2022-12-25T18:26:19.189Z,1.30
2022-12-25T18:28:48.385Z,1.25
2022-12-25T18:31:21.763Z,1.42
2022-12-25T18:33:50.125Z,1.48
2022-12-25T18:36:22.856Z,1.63
2022-12-25T18:38:52.221Z,1.40
2022-12-25T18:41:21.181Z,1.40
2022-12-25T18:43:54.094Z,1.35
2022-12-25T18:46:27.387Z,1.75
2022-12-25T18:48:56.813Z,1.35
2022-12-25T18:51:24.656Z,1.60
2022-12-25T18:53:52.444Z,1.40
2022-12-25T18:56:20.604Z,1.15
2022-12-25T18:58:48.595Z,1.27
2022-12-25T19:01:21.990Z,1.70
2022-12-25T19:03:51.312Z,1.50
2022-12-25T19:06:27.113Z,2.38
2022-12-25T19:08:55.767Z,2.22
2022-12-25T19:11:23.436Z,1.95
2022-12-25T19:13:51.242Z,2.38
2022-12-25T19:16:18.836Z,2.00
2022-12-25T19:18:46.881Z,1.90
2022-12-25T19:21:14.411Z,2.15
2022-12-25T19:23:41.933Z,2.15
2022-12-25T19:26:10.698Z,2.08
2022-12-25T19:28:39.678Z,2.80
2022-12-25T19:31:09.140Z,2.25
2022-12-25T19:33:41.565Z,2.15
2022-12-25T19:36:14.565Z,2.10
2022-12-25T19:38:43.269Z,2.30
2022-12-25T19:41:16.315Z,2.38
2022-12-25T19:43:47.541Z,2.25
2022-12-25T19:46:18.878Z,2.25
2022-12-25T19:48:47.080Z,2.25
2022-12-25T19:51:16.069Z,2.50
2022-12-25T19:53:46.407Z,2.30
2022-12-25T19:56:15.213Z,1.88
2022-12-25T19:58:43.240Z,1.42
2022-12-25T20:01:13.847Z,1.70
2022-12-25T20:03:47.613Z,1.20
2022-12-25T20:06:23.342Z,2.00
2022-12-25T20:08:56.660Z,1.83
2022-12-25T20:11:26.689Z,1.60
2022-12-25T20:13:54.815Z,2.03
2022-12-25T20:16:23.973Z,2.30
2022-12-25T20:18:51.837Z,1.98
2022-12-25T20:21:21.835Z,1.88
2022-12-25T20:23:51.223Z,2.00
2022-12-25T20:26:20.915Z,2.00
2022-12-25T20:28:49.031Z,2.33
2022-12-25T20:31:28.401Z,2.42
2022-12-25T20:33:58.021Z,1.70
2022-12-25T20:36:31.042Z,3.15
2022-12-25T20:39:02.189Z,1.80
2022-12-25T20:41:30.350Z,1.70
2022-12-25T20:43:58.444Z,2.05
2022-12-25T20:46:26.637Z,1.73
2022-12-25T20:48:54.386Z,1.50
2022-12-25T20:51:24.248Z,1.50
2022-12-25T20:53:52.450Z,1.10
2022-12-25T20:56:23.376Z,1.73
2022-12-25T20:58:55.466Z,1.60
2022-12-25T21:01:23.539Z,1.60
2022-12-25T21:03:51.579Z,1.40
2022-12-25T21:06:19.305Z,1.17
2022-12-25T21:08:48.088Z,1.67
2022-12-25T21:11:16.034Z,2.00
2022-12-25T21:13:45.484Z,1.90
2022-12-25T21:16:16.687Z,1.92
2022-12-25T21:18:44.639Z,1.73
2022-12-25T21:21:12.751Z,1.13
2022-12-25T21:23:40.744Z,1.45
2022-12-25T21:26:19.132Z,1.60
2022-12-25T21:28:48.228Z,1.95
2022-12-25T21:31:15.963Z,2.25
2022-12-25T21:33:52.958Z,1.33
2022-12-25T21:36:27.486Z,1.33
2022-12-25T21:38:58.469Z,1.17
2022-12-25T21:41:27.476Z,1.15
2022-12-25T21:43:56.301Z,1.65
2022-12-25T21:46:24.372Z,0.88
2022-12-25T21:48:52.480Z,1.10
2022-12-25T21:51:41.859Z,1.17
2022-12-25T21:54:10.521Z,0.98
2022-12-25T21:56:44.539Z,1.13
2022-12-25T21:59:15.931Z,0.80
2022-12-25T22:01:44.402Z,1.42
2022-12-25T22:04:13.915Z,1.00
2022-12-25T22:07:01.068Z,1.20
2022-12-25T22:09:28.667Z,1.02
2022-12-25T22:12:16.365Z,0.90
2022-12-25T22:14:54.325Z,0.90
2022-12-25T22:17:45.345Z,1.00
2022-12-25T22:20:17.567Z,0.80
2022-12-25T22:22:45.302Z,0.90
2022-12-25T22:25:14.080Z,0.93
2022-12-25T22:27:43.465Z,1.10
2022-12-25T22:30:25.827Z,1.20
2022-12-25T22:32:54.216Z,1.27
2022-12-25T22:35:22.030Z,0.98
2022-12-25T22:37:50.005Z,1.20
2022-12-25T22:40:19.150Z,1.75
2022-12-25T22:42:47.356Z,1.45
2022-12-25T22:45:14.997Z,1.52
2022-12-25T22:47:42.537Z,1.27
2022-12-25T22:50:11.887Z,1.48
2022-12-25T22:52:39.403Z,1.02
2022-12-25T22:55:09.787Z,1.13
2022-12-25T22:57:37.533Z,1.35
2022-12-25T23:00:08.931Z,1.50
2022-12-25T23:02:36.918Z,1.38
2022-12-25T23:05:05.239Z,1.15
2022-12-25T23:07:32.887Z,1.65
2022-12-25T23:10:00.534Z,1.20
2022-12-25T23:12:46.551Z,1.10
2022-12-25T23:15:14.009Z,1.40
2022-12-25T23:18:00.339Z,1.33
2022-12-25T23:23:45.941Z,1.38
2022-12-25T23:26:15.423Z,1.20
2022-12-25T23:29:02.560Z,1.20
2022-12-25T23:31:36.079Z,1.10
2022-12-25T23:34:05.295Z,1.00
2022-12-25T23:36:33.642Z,1.20
2022-12-25T23:39:09.055Z,0.90
2022-12-25T23:41:42.109Z,1.65
2022-12-25T23:44:11.480Z,1.02
2022-12-25T23:46:40.275Z,1.35
2022-12-25T23:49:08.466Z,1.52
2022-12-25T23:51:37.692Z,1.48
2022-12-25T23:54:06.754Z,1.10
2022-12-25T23:56:34.412Z,1.35
2022-12-25T23:59:04.146Z,1.23
